createdAt,value
2022-10-22T00:00:12.104Z,12.67
2022-10-22T00:02:41.337Z,12.83
2022-10-22T00:05:11.119Z,12.70
2022-10-22T00:07:40.344Z,12.33
2022-10-22T00:10:10.525Z,12.70
2022-10-22T00:12:41.255Z,12.30
2022-10-22T00:15:12.373Z,12.43
2022-10-22T00:17:41.636Z,12.00
2022-10-22T00:20:11.617Z,12.77
2022-10-22T00:22:40.499Z,12.30
2022-10-22T00:25:10.310Z,11.73
2022-10-22T00:27:40.871Z,11.63
2022-10-22T00:30:11.524Z,11.07
2022-10-22T00:32:40.755Z,11.90
2022-10-22T00:35:10.010Z,11.07
2022-10-22T00:37:38.939Z,11.70
2022-10-22T00:40:08.688Z,11.60
2022-10-22T00:42:37.796Z,11.40
2022-10-22T00:45:18.396Z,11.87
2022-10-22T00:47:54.605Z,10.93
2022-10-22T00:50:28.110Z,10.43
2022-10-22T00:52:58.465Z,10.90
2022-10-22T00:55:28.219Z,10.07
2022-10-22T00:57:58.991Z,10.33
2022-10-22T01:00:29.639Z,10.90
2022-10-22T01:02:59.550Z,10.73
2022-10-22T01:05:30.708Z,10.10
2022-10-22T01:08:00.149Z,10.37
2022-10-22T01:10:48.497Z,9.67
2022-10-22T01:13:27.722Z,9.03
2022-10-22T01:16:08.090Z,9.27
2022-10-22T01:18:41.820Z,9.10
2022-10-22T01:21:18.030Z,8.70
2022-10-22T01:24:16.866Z,8.53
2022-10-22T01:27:00.796Z,8.70
2022-10-22T01:29:35.810Z,8.50
2022-10-22T01:32:15.597Z,8.47
2022-10-22T01:34:49.319Z,8.30
2022-10-22T01:37:20.006Z,8.60
2022-10-22T01:39:49.630Z,8.47
2022-10-22T01:42:18.369Z,8.77
2022-10-22T01:44:50.345Z,8.83
2022-10-22T01:47:28.180Z,9.63
2022-10-22T01:50:32.212Z,9.70
2022-10-22T01:53:24.137Z,10.30
2022-10-22T01:56:11.037Z,10.47
2022-10-22T01:58:46.643Z,9.70
2022-10-22T02:01:24.987Z,9.20
2022-10-22T02:04:00.631Z,9.67
2022-10-22T02:06:30.354Z,9.83
2022-10-22T02:09:00.610Z,10.37
2022-10-22T02:11:49.255Z,11.10
2022-10-22T02:14:20.770Z,10.30
2022-10-22T02:16:52.136Z,11.50
2022-10-22T02:19:26.711Z,10.90
2022-10-22T02:21:56.750Z,13.93
2022-10-22T02:24:26.771Z,13.33
2022-10-22T02:27:02.489Z,13.40
2022-10-22T02:29:39.193Z,13.90
2022-10-22T02:32:13.503Z,13.83
2022-10-22T02:34:43.167Z,13.87
2022-10-22T02:37:12.406Z,13.43
2022-10-22T02:39:41.818Z,13.10
2022-10-22T02:42:12.279Z,14.00
2022-10-22T02:44:41.230Z,14.27
2022-10-22T02:47:11.574Z,14.33
2022-10-22T02:49:40.455Z,15.17
2022-10-22T02:52:09.331Z,17.27
2022-10-22T02:54:38.126Z,17.17
2022-10-22T02:57:07.308Z,15.10
2022-10-22T02:59:36.196Z,14.23
2022-10-22T03:02:05.112Z,13.47
2022-10-22T03:04:35.455Z,13.00
2022-10-22T03:07:04.273Z,13.00
2022-10-22T03:09:33.102Z,12.80
2022-10-22T03:12:01.915Z,13.83
2022-10-22T03:14:30.725Z,14.43
2022-10-22T03:16:59.505Z,14.57
2022-10-22T03:19:28.322Z,13.47
2022-10-22T03:22:01.623Z,13.37
2022-10-22T03:24:35.424Z,11.80
2022-10-22T03:27:24.453Z,11.60
2022-10-22T03:29:54.431Z,11.27
2022-10-22T03:32:23.332Z,11.20
2022-10-22T03:34:52.144Z,11.37
2022-10-22T03:37:22.776Z,11.53
2022-10-22T03:39:51.982Z,12.40
2022-10-22T03:42:20.699Z,13.40
2022-10-22T03:44:49.821Z,12.57
2022-10-22T03:47:18.822Z,13.07
2022-10-22T03:49:47.715Z,11.97
2022-10-22T03:52:16.961Z,11.93
2022-10-22T03:54:47.398Z,13.07
2022-10-22T03:57:17.038Z,13.03
2022-10-22T03:59:47.451Z,14.00
2022-10-22T04:02:35.030Z,14.07
2022-10-22T04:05:04.028Z,13.30
2022-10-22T04:07:32.959Z,13.90
2022-10-22T04:10:03.180Z,14.20
2022-10-22T04:12:32.110Z,14.37
2022-10-22T04:15:00.938Z,17.07
2022-10-22T04:17:35.815Z,16.10
2022-10-22T04:20:06.297Z,15.90
2022-10-22T04:22:53.710Z,15.57
2022-10-22T04:25:23.883Z,15.20
2022-10-22T04:27:52.733Z,15.83
2022-10-22T04:30:21.517Z,15.60
2022-10-22T04:32:50.425Z,16.60
2022-10-22T04:35:19.276Z,15.57
2022-10-22T04:37:48.077Z,15.77
2022-10-22T04:40:17.063Z,15.70
2022-10-22T04:42:47.200Z,14.53
2022-10-22T04:45:16.524Z,16.10
2022-10-22T04:47:45.304Z,18.40
2022-10-22T04:50:14.201Z,16.83
2022-10-22T04:52:43.142Z,17.13
2022-10-22T04:55:11.975Z,16.60
2022-10-22T04:57:40.965Z,17.73
2022-10-22T05:00:12.999Z,17.13
2022-10-22T05:02:45.022Z,18.13
2022-10-22T05:05:13.839Z,17.40
2022-10-22T05:07:42.771Z,18.40
2022-10-22T05:10:12.230Z,20.33
2022-10-22T05:12:41.054Z,34.60
2022-10-22T05:15:12.761Z,42.40
2022-10-22T05:17:42.241Z,42.87
2022-10-22T05:20:11.911Z,33.23
2022-10-22T05:22:40.728Z,26.43
2022-10-22T05:25:10.173Z,21.60
2022-10-22T05:27:39.333Z,18.27
2022-10-22T05:30:10.820Z,16.07
2022-10-22T05:32:39.603Z,15.00
2022-10-22T05:35:09.162Z,15.37
2022-10-22T05:37:38.222Z,15.17
2022-10-22T05:40:19.457Z,19.60
2022-10-22T05:42:55.914Z,23.07
2022-10-22T05:45:26.171Z,19.43
2022-10-22T05:47:54.946Z,17.30
2022-10-22T05:50:23.927Z,15.93
2022-10-22T05:52:52.723Z,14.23
2022-10-22T05:55:21.450Z,14.47
2022-10-22T05:57:50.639Z,13.73
2022-10-22T06:00:19.749Z,12.10
2022-10-22T06:02:53.270Z,12.47
2022-10-22T06:05:22.261Z,11.57
2022-10-22T06:07:51.161Z,13.07
2022-10-22T06:10:22.072Z,12.10
2022-10-22T06:12:51.129Z,11.60
2022-10-22T06:15:21.606Z,13.00
2022-10-22T06:17:52.075Z,14.73
2022-10-22T06:20:20.995Z,13.03
2022-10-22T06:22:49.823Z,11.77
2022-10-22T06:25:18.821Z,11.87
2022-10-22T06:27:52.042Z,11.33
2022-10-22T06:30:20.856Z,10.90
2022-10-22T06:32:49.598Z,9.97
2022-10-22T06:35:19.908Z,10.17
2022-10-22T06:37:48.812Z,12.27
2022-10-22T06:40:18.909Z,11.67
2022-10-22T06:42:47.691Z,11.70
2022-10-22T06:45:17.033Z,13.30
2022-10-22T06:47:46.889Z,9.37
2022-10-22T06:50:15.977Z,9.37
2022-10-22T06:52:46.274Z,8.93
2022-10-22T06:55:15.206Z,9.33
2022-10-22T06:57:44.300Z,18.13
2022-10-22T07:00:14.496Z,30.57
2022-10-22T07:02:43.656Z,29.23
2022-10-22T07:05:12.793Z,22.40
2022-10-22T07:07:41.763Z,31.37
2022-10-22T07:10:12.290Z,27.50
2022-10-22T07:12:41.372Z,23.67
2022-10-22T07:15:11.452Z,14.90
2022-10-22T07:17:58.570Z,9.90
2022-10-22T07:20:27.431Z,14.33
2022-10-22T07:22:56.377Z,12.50
2022-10-22T07:25:26.718Z,8.60
2022-10-22T07:27:55.571Z,8.93
2022-10-22T07:30:24.465Z,9.40
2022-10-22T07:32:53.332Z,9.80
2022-10-22T07:35:22.295Z,7.67
2022-10-22T07:37:51.097Z,7.57
2022-10-22T07:40:20.042Z,6.73
2022-10-22T07:42:50.403Z,7.07
2022-10-22T07:45:19.465Z,7.20
2022-10-22T07:47:49.934Z,7.80
2022-10-22T07:50:19.133Z,8.33
2022-10-22T07:52:48.200Z,6.83
2022-10-22T07:55:16.950Z,7.03
2022-10-22T07:57:45.815Z,7.03
2022-10-22T08:00:18.550Z,7.40
2022-10-22T08:02:49.396Z,7.67
2022-10-22T08:05:18.565Z,6.63
2022-10-22T08:07:47.466Z,8.40
2022-10-22T08:10:16.500Z,15.00
2022-10-22T08:12:45.456Z,11.07
2022-10-22T08:15:15.666Z,6.37
2022-10-22T08:17:44.760Z,5.77
2022-10-22T08:20:14.458Z,6.80
2022-10-22T08:22:43.350Z,7.60
2022-10-22T08:25:12.731Z,7.73
2022-10-22T08:27:42.126Z,18.53
2022-10-22T08:30:13.109Z,28.07
2022-10-22T08:32:43.835Z,33.87
2022-10-22T08:35:15.434Z,23.37
2022-10-22T08:37:46.762Z,17.63
2022-10-22T08:40:26.476Z,22.77
2022-10-22T08:43:27.931Z,23.23
2022-10-22T08:46:09.416Z,26.90
2022-10-22T08:48:47.221Z,14.93
2022-10-22T08:51:21.849Z,15.87
2022-10-22T08:54:05.870Z,21.80
2022-10-22T08:56:37.946Z,13.60
2022-10-22T08:59:14.264Z,10.33
2022-10-22T09:01:46.601Z,13.27
2022-10-22T09:04:25.594Z,9.80
2022-10-22T09:06:56.133Z,14.03
2022-10-22T09:09:27.930Z,21.50
2022-10-22T09:11:59.864Z,17.37
2022-10-22T09:14:30.099Z,14.97
2022-10-22T09:17:27.632Z,15.37
2022-10-22T09:20:09.820Z,12.47
2022-10-22T09:22:48.002Z,8.67
2022-10-22T09:25:21.948Z,15.77
2022-10-22T09:27:52.875Z,11.00
2022-10-22T09:30:23.557Z,8.70
2022-10-22T09:32:53.596Z,5.80
2022-10-22T09:35:48.339Z,5.63
2022-10-22T09:38:20.303Z,5.60
2022-10-22T09:40:51.720Z,5.40
2022-10-22T09:43:21.258Z,6.43
2022-10-22T09:45:57.228Z,6.10
2022-10-22T09:48:32.395Z,6.73
2022-10-22T09:51:07.616Z,5.33
2022-10-22T09:53:39.181Z,6.13
2022-10-22T09:56:11.218Z,5.93
2022-10-22T09:58:49.539Z,7.07
2022-10-22T10:01:20.992Z,6.63
2022-10-22T10:03:50.998Z,6.03
2022-10-22T10:06:23.044Z,7.10
2022-10-22T10:08:52.287Z,6.77
2022-10-22T10:11:29.877Z,6.27
2022-10-22T10:14:10.280Z,6.70
2022-10-22T10:16:48.062Z,9.10
2022-10-22T10:19:42.614Z,9.87
2022-10-22T10:22:23.159Z,12.43
2022-10-22T10:25:04.670Z,10.30
2022-10-22T10:27:39.690Z,11.70
2022-10-22T10:30:14.583Z,13.27
2022-10-22T10:33:02.306Z,11.23
2022-10-22T10:35:57.080Z,6.03
2022-10-22T10:38:39.046Z,6.07
2022-10-22T10:41:26.408Z,5.80
2022-10-22T10:44:07.062Z,5.80
2022-10-22T10:46:44.722Z,6.33
2022-10-22T10:49:21.213Z,15.53
2022-10-22T10:51:58.978Z,8.70
2022-10-22T10:54:48.420Z,5.80
2022-10-22T10:57:27.494Z,4.57
2022-10-22T11:00:07.449Z,4.50
2022-10-22T11:02:58.946Z,9.00
2022-10-22T11:05:34.675Z,8.10
2022-10-22T11:08:07.949Z,6.33
2022-10-22T11:10:43.504Z,13.23
2022-10-22T11:13:22.369Z,9.43
2022-10-22T11:15:57.992Z,8.73
2022-10-22T11:18:48.104Z,13.23
2022-10-22T11:21:25.843Z,7.73
2022-10-22T11:23:59.727Z,6.60
2022-10-22T11:26:42.863Z,7.33
2022-10-22T11:29:15.268Z,6.20
2022-10-22T11:31:45.613Z,6.80
2022-10-22T11:34:34.924Z,6.80
2022-10-22T11:37:05.872Z,6.83
2022-10-22T11:39:40.917Z,6.03
2022-10-22T11:42:17.614Z,5.67
2022-10-22T11:45:00.004Z,5.80
2022-10-22T11:47:30.862Z,5.90
2022-10-22T11:50:05.265Z,6.27
2022-10-22T11:52:49.006Z,6.47
2022-10-22T11:55:46.165Z,5.40
2022-10-22T11:58:36.367Z,5.03
2022-10-22T12:01:28.619Z,4.43
2022-10-22T12:04:19.827Z,5.47
2022-10-22T12:07:01.663Z,6.83
2022-10-22T12:09:34.587Z,5.00
2022-10-22T12:12:11.700Z,5.80
2022-10-22T12:14:54.392Z,5.00
2022-10-22T12:17:24.244Z,4.90
2022-10-22T12:20:02.093Z,4.50
2022-10-22T12:22:33.813Z,4.77
2022-10-22T12:25:04.818Z,4.33
2022-10-22T12:27:45.485Z,4.13
2022-10-22T12:30:24.405Z,3.70
2022-10-22T12:32:55.176Z,3.77
2022-10-22T12:35:27.043Z,4.17
2022-10-22T12:37:58.439Z,4.43
2022-10-22T12:40:29.937Z,6.13
2022-10-22T12:43:00.410Z,5.27
2022-10-22T12:45:32.157Z,4.47
2022-10-22T12:48:23.172Z,4.93
2022-10-22T12:50:54.571Z,4.70
2022-10-22T12:53:28.679Z,4.33
2022-10-22T12:56:02.447Z,5.50
2022-10-22T12:58:38.838Z,8.13
2022-10-22T13:01:13.051Z,7.23
2022-10-22T13:03:44.990Z,9.13
2022-10-22T13:06:15.886Z,5.00
2022-10-22T13:08:45.062Z,4.70
2022-10-22T13:11:14.321Z,4.87
2022-10-22T13:13:45.900Z,5.37
2022-10-22T13:16:19.061Z,4.90
2022-10-22T13:18:49.435Z,5.07
2022-10-22T13:21:40.896Z,5.00
2022-10-22T13:24:23.864Z,5.93
2022-10-22T13:26:55.630Z,5.47
2022-10-22T13:29:25.803Z,5.80
2022-10-22T13:31:56.137Z,5.70
2022-10-22T13:34:45.772Z,5.60
2022-10-22T13:37:14.647Z,6.10
2022-10-22T13:39:43.605Z,5.53
2022-10-22T13:42:14.285Z,5.63
2022-10-22T13:44:43.118Z,5.27
2022-10-22T13:47:26.033Z,5.80
2022-10-22T13:52:37.335Z,5.63
2022-10-22T13:55:15.784Z,6.80
2022-10-22T13:57:44.800Z,8.57
2022-10-22T14:00:16.156Z,7.47
2022-10-22T14:02:50.900Z,8.57
2022-10-22T14:05:20.317Z,46.97
2022-10-22T14:07:49.480Z,12.20
2022-10-22T14:10:37.077Z,28.83
2022-10-22T14:13:08.609Z,26.37
2022-10-22T14:15:38.225Z,42.13
2022-10-22T14:18:10.944Z,50.70
2022-10-22T14:20:43.082Z,61.50
2022-10-22T14:25:51.489Z,36.10
2022-10-22T14:28:20.645Z,27.43
2022-10-22T14:30:50.357Z,76.17
2022-10-22T14:33:28.799Z,122.60
2022-10-22T14:36:00.960Z,126.53
2022-10-22T14:38:30.393Z,89.70
2022-10-22T14:41:01.149Z,99.70
2022-10-22T14:43:32.615Z,83.40
2022-10-22T14:46:01.588Z,73.10
2022-10-22T14:48:31.814Z,48.83
2022-10-22T14:51:00.653Z,24.10
2022-10-22T14:53:29.967Z,16.10
2022-10-22T14:55:59.808Z,26.00
2022-10-22T14:58:28.898Z,40.73
2022-10-22T15:00:57.822Z,35.17
2022-10-22T15:03:26.730Z,24.57
2022-10-22T15:05:57.927Z,49.43
2022-10-22T15:08:27.909Z,63.90
2022-10-22T15:11:01.452Z,62.10
2022-10-22T15:13:31.616Z,46.17
2022-10-22T15:16:01.110Z,59.53
2022-10-22T15:18:30.089Z,50.83
2022-10-22T15:21:01.974Z,59.93
2022-10-22T15:23:49.638Z,55.70
2022-10-22T15:26:18.872Z,67.97
2022-10-22T15:28:47.902Z,64.23
2022-10-22T15:31:16.833Z,68.10
2022-10-22T15:33:45.832Z,73.27
2022-10-22T15:36:34.483Z,88.63
2022-10-22T15:39:08.899Z,87.87
2022-10-22T15:41:38.424Z,80.97
2022-10-22T15:44:08.752Z,52.17
2022-10-22T15:46:37.652Z,59.43
2022-10-22T15:49:06.932Z,52.37
2022-10-22T15:51:37.197Z,61.90
2022-10-22T15:54:07.903Z,58.70
2022-10-22T15:56:39.042Z,72.53
2022-10-22T15:59:08.037Z,61.77
2022-10-22T16:01:37.208Z,53.23
2022-10-22T16:04:06.305Z,52.03
2022-10-22T16:06:38.631Z,51.87
2022-10-22T16:09:09.774Z,54.30
2022-10-22T16:11:40.485Z,54.37
2022-10-22T16:14:10.147Z,48.63
2022-10-22T16:16:42.801Z,45.73
2022-10-22T16:19:13.619Z,32.60
2022-10-22T16:21:44.884Z,22.97
2022-10-22T16:24:32.275Z,13.30
2022-10-22T16:27:01.195Z,10.50
2022-10-22T16:29:31.019Z,10.13
2022-10-22T16:32:00.085Z,8.57
2022-10-22T16:34:29.134Z,18.00
2022-10-22T16:36:59.687Z,16.13
2022-10-22T16:39:28.517Z,17.80
2022-10-22T16:41:57.440Z,19.00
2022-10-22T16:44:26.282Z,21.80
2022-10-22T16:46:55.098Z,21.53
2022-10-22T16:49:24.163Z,21.47
2022-10-22T16:51:53.186Z,22.47
2022-10-22T16:54:23.447Z,21.40
2022-10-22T16:56:52.515Z,23.03
2022-10-22T16:59:21.526Z,23.57
2022-10-22T17:01:50.961Z,24.80
2022-10-22T17:04:19.909Z,22.37
2022-10-22T17:06:49.216Z,19.90
2022-10-22T17:09:18.235Z,19.87
2022-10-22T17:11:48.513Z,19.10
2022-10-22T17:14:17.335Z,18.37
2022-10-22T17:16:49.064Z,18.60
2022-10-22T17:19:18.143Z,19.00
2022-10-22T17:21:48.948Z,21.10
2022-10-22T17:24:18.124Z,20.33
2022-10-22T17:26:48.794Z,23.50
2022-10-22T17:29:18.264Z,23.10
2022-10-22T17:31:47.151Z,22.33
2022-10-22T17:34:18.161Z,22.43
2022-10-22T17:36:46.975Z,20.87
2022-10-22T17:39:19.808Z,19.20
2022-10-22T17:42:08.743Z,19.37
2022-10-22T17:44:38.172Z,21.00
2022-10-22T17:47:07.145Z,19.83
2022-10-22T17:49:38.550Z,20.23
2022-10-22T17:52:07.572Z,20.23
2022-10-22T17:54:37.216Z,22.27
2022-10-22T17:57:07.607Z,22.80
2022-10-22T17:59:36.979Z,22.43
2022-10-22T18:02:06.012Z,22.87
2022-10-22T18:04:35.256Z,23.23
2022-10-22T18:07:04.035Z,23.70
2022-10-22T18:09:33.068Z,23.47
2022-10-22T18:12:01.909Z,23.07
2022-10-22T18:14:32.376Z,23.23
2022-10-22T18:17:03.893Z,24.23
2022-10-22T18:19:33.069Z,24.23
2022-10-22T18:22:02.030Z,20.77
2022-10-22T18:24:30.891Z,29.03
2022-10-22T18:26:59.774Z,31.57
2022-10-22T18:29:28.710Z,34.00
2022-10-22T18:32:00.884Z,34.90
2022-10-22T18:34:30.612Z,38.10
2022-10-22T18:37:00.023Z,39.97
2022-10-22T18:39:28.866Z,39.73
2022-10-22T18:41:57.723Z,42.03
2022-10-22T18:44:26.736Z,42.57
2022-10-22T18:46:55.554Z,40.33
2022-10-22T18:49:26.047Z,39.57
2022-10-22T18:51:54.935Z,39.50
2022-10-22T18:54:24.769Z,39.23
2022-10-22T18:56:56.281Z,42.90
2022-10-22T18:59:28.675Z,43.10
2022-10-22T19:01:59.848Z,44.20
2022-10-22T19:04:36.857Z,43.00
2022-10-22T19:07:06.355Z,42.23
2022-10-22T19:09:36.038Z,40.77
2022-10-22T19:12:05.133Z,40.80
2022-10-22T19:14:34.428Z,42.90
2022-10-22T19:17:03.227Z,40.80
2022-10-22T19:19:33.664Z,40.33
2022-10-22T19:22:02.562Z,38.37
2022-10-22T19:24:31.441Z,37.83
2022-10-22T19:27:00.452Z,37.53
2022-10-22T19:29:29.607Z,36.20
2022-10-22T19:31:58.414Z,35.53
2022-10-22T19:34:27.483Z,34.13
2022-10-22T19:36:57.845Z,34.00
2022-10-22T19:39:26.713Z,31.57
2022-10-22T19:41:55.543Z,30.03
2022-10-22T19:44:24.565Z,29.57
2022-10-22T19:46:53.497Z,32.00
2022-10-22T19:49:23.148Z,31.07
2022-10-22T19:51:52.074Z,30.20
2022-10-22T19:54:22.817Z,30.13
2022-10-22T19:56:52.225Z,34.50
2022-10-22T19:59:23.008Z,37.13
2022-10-22T20:01:51.963Z,40.97
2022-10-22T20:04:25.226Z,49.47
2022-10-22T20:06:54.200Z,54.83
2022-10-22T20:09:24.559Z,45.67
2022-10-22T20:11:53.498Z,40.20
2022-10-22T20:14:22.417Z,34.53
2022-10-22T20:16:51.270Z,27.10
2022-10-22T20:19:20.107Z,25.87
2022-10-22T20:21:50.719Z,23.20
2022-10-22T20:24:20.034Z,22.97
2022-10-22T20:26:50.364Z,20.77
2022-10-22T20:29:19.806Z,29.93
2022-10-22T20:31:49.306Z,42.90
2022-10-22T20:34:18.403Z,43.77
2022-10-22T20:36:47.451Z,53.10
2022-10-22T20:39:17.322Z,54.13
2022-10-22T20:41:46.190Z,75.13
2022-10-22T20:44:19.911Z,72.70
2022-10-22T20:46:48.779Z,64.23
2022-10-22T20:49:19.382Z,69.37
2022-10-22T20:51:48.631Z,66.13
2022-10-22T20:54:17.825Z,73.43
2022-10-22T20:56:48.136Z,71.60
2022-10-22T20:59:19.012Z,72.73
2022-10-22T21:01:51.089Z,72.37
2022-10-22T21:04:23.626Z,72.80
2022-10-22T21:06:53.714Z,72.90
2022-10-22T21:09:23.082Z,73.00
2022-10-22T21:14:31.025Z,75.03
2022-10-22T21:17:03.867Z,75.87
2022-10-22T21:19:32.878Z,71.17
2022-10-22T21:22:01.701Z,56.43
2022-10-22T21:24:30.726Z,54.00
2022-10-22T21:26:59.530Z,55.97
2022-10-22T21:29:29.901Z,56.73
2022-10-22T21:31:58.872Z,55.80
2022-10-22T21:34:27.618Z,54.93
2022-10-22T21:36:56.588Z,54.43
2022-10-22T21:39:25.713Z,65.83
2022-10-22T21:41:54.714Z,68.10
2022-10-22T21:44:23.472Z,64.43
2022-10-22T21:46:53.836Z,73.97
2022-10-22T21:49:41.490Z,80.17
2022-10-22T21:52:10.410Z,81.47
2022-10-22T21:54:40.101Z,81.50
2022-10-22T21:57:08.841Z,78.83
2022-10-22T21:59:38.163Z,80.17
2022-10-22T22:02:28.866Z,91.23
2022-10-22T22:04:57.797Z,89.53
2022-10-22T22:07:45.538Z,92.20
2022-10-22T22:10:15.090Z,92.97
2022-10-22T22:12:44.214Z,90.80
2022-10-22T22:15:13.308Z,83.10
2022-10-22T22:17:43.652Z,76.80
2022-10-22T22:20:31.327Z,70.13
2022-10-22T22:23:00.202Z,73.13
2022-10-22T22:25:28.997Z,72.70
2022-10-22T22:27:57.709Z,74.00
2022-10-22T22:30:26.600Z,75.77
2022-10-22T22:32:56.764Z,81.73
2022-10-22T22:35:25.624Z,79.17
2022-10-22T22:37:54.671Z,66.33
2022-10-22T22:40:23.550Z,60.50
2022-10-22T22:42:52.412Z,57.93
2022-10-22T22:45:21.397Z,53.80
2022-10-22T22:47:50.232Z,44.13
2022-10-22T22:50:20.521Z,39.97
2022-10-22T22:52:50.195Z,33.37
2022-10-22T22:55:19.378Z,30.97
2022-10-22T22:57:48.341Z,29.67
2022-10-22T23:00:18.068Z,27.07
2022-10-22T23:02:46.923Z,26.80
2022-10-22T23:05:16.220Z,34.10
2022-10-22T23:07:46.464Z,37.33
2022-10-22T23:10:15.304Z,45.23
2022-10-22T23:12:45.195Z,62.87
2022-10-22T23:15:14.001Z,61.80
2022-10-22T23:17:42.801Z,60.60
2022-10-22T23:20:12.008Z,59.63
2022-10-22T23:22:41.065Z,60.53
2022-10-22T23:25:11.959Z,60.07
2022-10-22T23:27:41.150Z,57.67
2022-10-22T23:30:11.436Z,54.67
2022-10-22T23:32:40.598Z,51.43
2022-10-22T23:35:10.905Z,45.03
2022-10-22T23:37:40.009Z,37.73
2022-10-22T23:40:11.779Z,33.40
2022-10-22T23:42:44.308Z,33.10
2022-10-22T23:45:13.389Z,30.33
2022-10-22T23:47:42.639Z,35.90
2022-10-22T23:50:13.392Z,33.50
2022-10-22T23:52:42.637Z,36.60
2022-10-22T23:55:13.418Z,37.03
2022-10-22T23:57:42.326Z,36.50
